createdAt,value
2023-01-11T00:00:21.873Z,99.40
2023-01-11T00:07:09.840Z,98.90
2023-01-11T00:13:56.475Z,99.00
2023-01-11T00:20:38.535Z,99.00
2023-01-11T00:27:34.671Z,99.10
2023-01-11T00:34:24.417Z,99.20
2023-01-11T00:41:25.037Z,99.00
2023-01-11T00:48:22.978Z,98.80
2023-01-11T00:55:22.288Z,98.80
2023-01-11T01:02:15.232Z,98.60
2023-01-11T01:09:07.715Z,98.70
2023-01-11T01:15:47.549Z,98.70
2023-01-11T01:27:17.149Z,99.20
2023-01-11T01:34:04.911Z,98.60
2023-01-11T01:40:46.549Z,98.80
2023-01-11T01:47:46.364Z,98.90
2023-01-11T01:54:41.641Z,98.90
2023-01-11T02:01:49.962Z,99.00
2023-01-11T02:08:42.517Z,99.10
2023-01-11T02:15:24.158Z,99.50
2023-01-11T02:31:28.181Z,99.80
2023-01-11T02:38:25.462Z,99.70
2023-01-11T02:45:23.298Z,99.60
2023-01-11T02:52:19.252Z,99.50
2023-01-11T02:55:25.529Z,99.90
2023-01-11T02:58:08.789Z,99.40
2023-01-11T03:04:56.583Z,99.50
2023-01-11T03:12:39.364Z,99.70
2023-01-11T03:16:19.991Z,99.80
2023-01-11T03:23:24.942Z,99.90
2023-01-11T03:30:25.440Z,99.90
2023-01-11T03:37:21.746Z,99.90
2023-01-11T03:44:15.209Z,99.90
2023-01-11T03:51:15.193Z,99.90
2023-01-11T04:02:24.394Z,99.90
2023-01-11T04:09:14.321Z,99.90
2023-01-11T04:15:55.292Z,99.90
2023-01-11T04:23:16.849Z,99.90
2023-01-11T04:30:18.025Z,99.90
2023-01-11T04:37:06.467Z,99.90
2023-01-11T04:44:05.489Z,99.90
2023-01-11T04:51:04.643Z,99.90
2023-01-11T05:02:16.539Z,99.90
2023-01-11T05:09:06.604Z,99.90
2023-01-11T05:15:50.195Z,99.90
2023-01-11T05:22:36.686Z,99.90
2023-01-11T05:29:27.164Z,99.90
2023-01-11T05:36:12.219Z,99.90
2023-01-11T05:42:58.708Z,99.90
2023-01-11T05:49:51.968Z,99.90
2023-01-11T05:56:42.663Z,99.90
2023-01-11T05:59:50.577Z,99.90
2023-01-11T06:06:44.289Z,99.90
2023-01-11T06:13:35.108Z,99.90
2023-01-11T06:20:15.906Z,99.90
2023-01-11T06:27:06.933Z,99.90
2023-01-11T06:33:52.850Z,99.90
2023-01-11T06:40:32.994Z,99.90
2023-01-11T06:47:21.265Z,99.90
2023-01-11T06:54:08.016Z,99.90
2023-01-11T07:05:04.244Z,99.90
2023-01-11T07:12:08.247Z,99.90
2023-01-11T07:33:03.473Z,99.90
2023-01-11T07:39:50.464Z,99.90
2023-01-11T07:46:42.935Z,99.90
2023-01-11T07:53:48.152Z,99.90
2023-01-11T08:00:31.447Z,99.90
2023-01-11T08:15:57.550Z,99.90
2023-01-11T08:40:51.606Z,99.90
2023-01-11T08:47:37.876Z,99.90
2023-01-11T08:54:25.298Z,99.90
2023-01-11T09:01:10.844Z,99.40
2023-01-11T09:08:10.295Z,98.80
2023-01-11T09:15:06.893Z,99.30
2023-01-11T09:21:57.795Z,99.90
2023-01-11T09:28:43.723Z,99.40
2023-01-11T09:39:37.404Z,99.20
2023-01-11T09:46:20.446Z,98.90
2023-01-11T09:53:12.364Z,99.10
2023-01-11T09:56:38.282Z,99.70
2023-01-11T09:59:23.007Z,98.60
2023-01-11T10:03:19.863Z,98.70
2023-01-11T10:18:22.584Z,98.40
2023-01-11T10:23:35.335Z,98.40
2023-01-11T10:38:04.611Z,98.60
2023-01-11T10:52:44.824Z,98.10
2023-01-11T10:59:51.024Z,98.10
2023-01-11T11:06:42.439Z,98.10
2023-01-11T11:13:45.508Z,98.00
2023-01-11T11:20:35.755Z,97.90
2023-01-11T11:27:30.576Z,97.70
2023-01-11T11:34:23.225Z,97.80
2023-01-11T11:41:10.200Z,97.80
2023-01-11T11:56:28.624Z,98.00
2023-01-11T11:59:11.397Z,98.20
2023-01-11T12:02:24.311Z,98.10
2023-01-11T12:05:26.036Z,97.80
2023-01-11T12:12:29.882Z,98.30
2023-01-11T12:23:29.567Z,97.80
2023-01-11T12:30:34.759Z,98.20
2023-01-11T12:34:19.856Z,99.00
2023-01-11T12:37:13.205Z,98.40
2023-01-11T12:48:40.444Z,99.70
2023-01-11T12:55:45.861Z,99.20
2023-01-11T13:05:26.869Z,99.80
2023-01-11T13:09:03.577Z,99.90
2023-01-11T13:15:58.210Z,99.90
2023-01-11T13:18:51.103Z,99.90
2023-01-11T13:21:44.770Z,99.90
2023-01-11T13:28:35.741Z,99.90
2023-01-11T13:32:07.865Z,99.90
2023-01-11T13:39:56.531Z,99.90
2023-01-11T13:47:49.801Z,99.90
2023-01-11T14:09:16.757Z,99.90
2023-01-11T14:13:05.482Z,99.90
2023-01-11T14:20:03.173Z,99.90
2023-01-11T14:27:12.704Z,99.90
2023-01-11T15:26:00.767Z,99.90
2023-01-11T15:32:44.748Z,99.90
2023-01-11T15:39:41.933Z,99.90
2023-01-11T15:47:02.133Z,99.90
2023-01-11T15:54:42.534Z,99.90
2023-01-11T15:58:19.436Z,99.90
2023-01-11T16:05:18.127Z,99.90
2023-01-11T16:12:28.931Z,99.90
2023-01-11T16:19:20.053Z,99.90
2023-01-11T16:56:59.435Z,99.90
2023-01-11T17:03:52.193Z,99.90
2023-01-11T17:52:54.816Z,99.90
2023-01-11T17:56:47.365Z,99.90
2023-01-11T18:03:27.983Z,99.90
2023-01-11T18:10:26.112Z,99.90
2023-01-11T18:21:56.753Z,99.90
2023-01-11T18:39:28.760Z,99.90
2023-01-11T18:46:51.777Z,99.90
2023-01-11T18:50:55.022Z,99.90
2023-01-11T19:15:20.742Z,99.90
2023-01-11T19:22:14.890Z,99.90
2023-01-11T19:33:26.255Z,99.90
2023-01-11T19:40:15.648Z,99.90
2023-01-11T19:47:12.489Z,99.90
2023-01-11T19:53:53.083Z,99.90
2023-01-11T20:00:41.013Z,99.90
2023-01-11T20:07:27.465Z,99.90
2023-01-11T20:14:11.426Z,99.90
2023-01-11T20:21:12.109Z,99.90
2023-01-11T20:27:58.354Z,99.90
2023-01-11T20:34:38.395Z,99.90
2023-01-11T20:41:46.618Z,99.90
2023-01-11T20:48:33.478Z,99.90
2023-01-11T20:55:20.399Z,99.90
2023-01-11T21:02:08.879Z,99.90
2023-01-11T21:08:49.326Z,99.90
2023-01-11T21:32:19.011Z,99.90
2023-01-11T21:39:00.872Z,99.90
2023-01-11T21:54:45.410Z,99.90
2023-01-11T22:01:47.555Z,99.90
2023-01-11T22:08:56.648Z,99.90
2023-01-11T22:16:26.222Z,99.90
2023-01-11T22:20:19.829Z,99.90
2023-01-11T22:27:10.327Z,99.90
2023-01-11T22:34:12.135Z,99.90
2023-01-11T22:41:10.735Z,99.90
2023-01-11T22:48:07.958Z,99.90
2023-01-11T22:55:02.183Z,99.90
2023-01-11T23:01:48.652Z,99.90
2023-01-11T23:08:40.782Z,99.90
2023-01-11T23:15:49.183Z,99.90
2023-01-11T23:22:42.051Z,99.90
2023-01-11T23:29:23.045Z,99.90
2023-01-11T23:36:12.090Z,99.90
2023-01-11T23:43:01.032Z,99.90
2023-01-11T23:49:43.385Z,99.90
2023-01-11T23:52:50.136Z,99.90
2023-01-11T23:59:30.467Z,99.90
